OMSJ

Sharjah International Airport

Sharjah, United Arab Emirates
TAF OMSJ 162258Z 1700/1806 14005KT 8000 NSC PROB30 1701/1704 4000 HZ BECMG 1705/1707 20012KT BECMG 1709/1711 28010KT
Issued Valid From Valid To
Jan-16 @ 22:58 UTC
(6 hours ago)
Jan-17 @ 00:00 UTC
(5 hours ago)
Jan-18 @ 06:00 UTC
(-1 days ago)
Jan-17 @ 00:00 to Jan-17 @ 05:00
TAF OMSJ 162258Z 1700/1806 14005KT 8000 NSC
Wind Visibility Clouds
140° at 5 knots 7,998 meters
  • No significant clouds
Expired Click to View Jan-17 @ 01:00 to Jan-17 @ 04:00
PROB30 1701/1704 4000 HZ
Visibility Conditions
4,007 meters
  • Haze
Becoming Jan-17 @ 05:00 to Jan-17 @ 09:00
BECMG 1705/1707 20012KT
Wind Visibility Clouds
200° at 12 knots 7,998 meters
  • No significant clouds
Becoming Jan-17 @ 09:00 to Jan-18 @ 06:00
BECMG 1709/1711 28010KT
Wind Visibility Clouds
280° at 10 knots 7,998 meters
  • No significant clouds
TAF OMSJ 162258Z 1700/1806 14005KT 8000 NSC PROB30 1701/1704 4000 HZ BECMG 1705/1707 20012KT BECMG 1709/1711 28010KT
Issued Jan-16 @ 22:58 UTC
(6 hours ago)
Valid From Jan-17 @ 00:00 UTC
(5 hours ago)
Valid To Jan-18 @ 06:00 UTC
(-1 days ago)
Jan-17 @ 00:00 - Jan-17 @ 05:00
Wind Visibility
140° at 5 knots 7,998 meters
Clouds
  • No significant clouds
Jan-17 @ 01:00 - Jan-17 @ 04:00
Conditions
  • Haze
Becoming Jan-17 @ 05:00 - Jan-17 @ 09:00
Wind Visibility
200° at 12 knots 7,998 meters
Clouds
  • No significant clouds
Becoming Jan-17 @ 09:00 - Jan-18 @ 06:00
Wind Visibility
280° at 10 knots 7,998 meters
Clouds
  • No significant clouds